Time;durP1;ratioP1;P1;durP2;ratioP2;P2;SDS_P1;SDS_P2;PMS_P1;PMS_P2;Temp;Humidity;BMP_temperature;BMP_pressure;BME280_temperature;BME280_humidity;BME280_pressure;Samples;Min_cycle;Max_cycle;Signal;HPM_P1;HPM_P2
2022/09/01 00:02:19;;;;;;;6.47;2.75;;;;;;;28.92;41.18;101401.81;5113449;28;20035;-47
2022/09/01 00:04:48;;;;;;;6.60;2.80;;;;;;;28.85;41.23;101398.31;5114365;28;20042;-51
2022/09/01 00:07:16;;;;;;;6.55;2.85;;;;;;;28.86;41.20;101397.44;5113157;28;20464;-49
2022/09/01 00:09:45;;;;;;;6.85;2.75;;;;;;;28.86;41.29;101397.44;5112910;28;20247;-47
2022/09/01 00:12:14;;;;;;;7.30;2.95;;;;;;;28.85;41.34;101395.66;5113413;28;20051;-48
2022/09/01 00:14:42;;;;;;;8.52;3.15;;;;;;;28.85;41.31;101395.66;5096212;28;20031;-47
2022/09/01 00:17:12;;;;;;;5.35;2.85;;;;;;;28.84;41.37;101399.19;5113611;28;20546;-49
2022/09/01 00:19:41;;;;;;;7.43;2.70;;;;;;;28.82;41.25;101395.66;5112894;28;20038;-49
2022/09/01 00:22:09;;;;;;;6.20;2.42;;;;;;;28.86;41.41;101397.44;5098150;28;20034;-47
2022/09/01 00:24:38;;;;;;;8.60;2.88;;;;;;;28.85;41.50;101394.81;5117152;28;20036;-49
2022/09/01 00:27:06;;;;;;;5.22;2.55;;;;;;;28.84;41.27;101401.81;5117777;28;20023;-49
2022/09/01 00:29:35;;;;;;;8.32;3.72;;;;;;;28.76;41.58;101393.91;5099135;28;20058;-47
2022/09/01 00:32:04;;;;;;;10.15;3.08;;;;;;;28.75;41.73;101397.44;5117588;28;20115;-48
2022/09/01 00:34:32;;;;;;;6.65;3.10;;;;;;;28.74;41.65;101392.16;5099331;28;20085;-47
2022/09/01 00:37:01;;;;;;;10.15;3.35;;;;;;;28.72;41.75;101384.19;5117317;28;20031;-48
2022/09/01 00:39:29;;;;;;;9.65;2.97;;;;;;;28.73;41.96;101385.09;5117463;28;20524;-47
2022/09/01 00:41:58;;;;;;;5.75;2.90;;;;;;;28.72;42.13;101391.25;5117502;28;20058;-48
2022/09/01 00:44:27;;;;;;;6.85;3.25;;;;;;;28.73;41.89;101393.91;5117161;28;20023;-47
2022/09/01 00:46:57;;;;;;;13.95;3.22;;;;;;;28.72;41.96;101386.84;5117006;28;20097;-49
2022/09/01 00:49:39;;;;;;;12.05;3.80;;;;;;;28.71;41.90;101382.44;5116933;28;20055;-47
2022/09/01 00:52:11;;;;;;;6.65;3.33;;;;;;;28.72;42.35;101381.56;5116601;28;20114;-47
2022/09/01 00:54:44;;;;;;;8.38;3.47;;;;;;;28.76;42.05;101382.50;5117207;28;20055;-49
2022/09/01 00:57:14;;;;;;;5.13;3.03;;;;;;;28.79;41.71;101379.84;5116895;28;20076;-51
2022/09/01 00:59:49;;;;;;;6.65;3.00;;;;;;;28.77;42.03;101384.25;5116456;28;20039;-47
2022/09/01 01:02:17;;;;;;;7.28;2.95;;;;;;;28.76;42.04;101374.56;5116757;28;20193;-51
2022/09/01 01:04:46;;;;;;;7.50;3.15;;;;;;;28.71;41.76;101369.22;5117019;28;20469;-50
2022/09/01 01:07:16;;;;;;;10.32;3.47;;;;;;;28.71;42.29;101373.66;5117105;28;20084;-49
2022/09/01 01:09:45;;;;;;;5.53;2.30;;;;;;;28.71;42.21;101371.88;5116518;28;20031;-50
2022/09/01 01:12:17;;;;;;;6.72;2.92;;;;;;;28.75;41.88;101368.38;5098585;28;20032;-48
2022/09/01 01:14:48;;;;;;;7.07;3.00;;;;;;;28.76;42.11;101374.56;5116664;28;20487;-48
2022/09/01 01:17:19;;;;;;;5.50;2.88;;;;;;;28.72;41.90;101383.34;5116592;28;20469;-48
2022/09/01 01:23:01;;;;;;;7.22;3.00;;;;;;;28.73;42.13;101369.25;5112593;28;20490;-48
2022/09/01 01:25:34;;;;;;;7.22;3.70;;;;;;;28.75;41.89;101364.88;5101009;28;20034;-47
2022/09/01 01:28:19;;;;;;;6.03;2.97;;;;;;;28.72;42.07;101356.94;5099233;28;20550;-46
2022/09/01 01:30:51;;;;;;;9.77;2.92;;;;;;;28.73;41.85;101354.31;5116457;28;20023;-47
2022/09/01 01:33:22;;;;;;;5.43;2.70;;;;;;;28.73;41.95;101354.31;5115236;28;20027;-47
2022/09/01 01:35:51;;;;;;;5.60;2.60;;;;;;;28.74;42.07;101356.06;5098570;28;20073;-48
2022/09/01 01:38:21;;;;;;;4.72;3.00;;;;;;;28.71;41.92;101363.94;5116726;28;20023;-48
2022/09/01 01:40:52;;;;;;;7.72;3.00;;;;;;;28.69;41.91;101354.28;5116326;28;20092;-51
2022/09/01 01:43:22;;;;;;;5.70;3.05;;;;;;;28.68;41.84;101356.06;5116169;28;20027;-52
2022/09/01 01:45:53;;;;;;;6.90;2.67;;;;;;;28.65;42.30;101356.94;5116907;28;20031;-47
2022/09/01 01:48:23;;;;;;;8.30;3.08;;;;;;;28.64;42.41;101351.66;5116211;28;20065;-50
2022/09/01 01:50:54;;;;;;;9.55;3.67;;;;;;;28.63;42.10;101337.56;5115463;28;20035;-47
2022/09/01 01:53:23;;;;;;;8.32;3.58;;;;;;;28.69;42.03;101349.00;5098070;28;20492;-48
2022/09/01 01:55:51;;;;;;;5.30;2.88;;;;;;;28.69;41.97;101341.09;5116132;28;20110;-48
2022/09/01 01:58:23;;;;;;;9.13;3.72;;;;;;;28.68;42.07;101334.94;5115633;28;20027;-49
2022/09/01 02:00:53;;;;;;;5.72;2.80;;;;;;;28.67;41.99;101333.19;5115839;28;20449;-50
2022/09/01 02:03:24;;;;;;;5.90;3.03;;;;;;;28.60;42.43;101327.03;5115500;28;20080;-50
2022/09/01 02:05:54;;;;;;;5.72;2.88;;;;;;;28.57;42.44;101324.38;5115675;28;20032;-49
2022/09/01 02:08:24;;;;;;;7.65;3.13;;;;;;;28.52;42.41;101320.88;5097508;28;20518;-50
2022/09/01 02:10:54;;;;;;;10.02;2.85;;;;;;;28.56;42.43;101324.38;5115376;28;20034;-49
2022/09/01 02:13:29;;;;;;;9.20;3.50;;;;;;;28.61;42.33;101325.25;5115634;28;20023;-51
2022/09/01 02:16:00;;;;;;;6.20;3.08;;;;;;;28.55;42.50;101331.44;5115898;28;20028;-49
2022/09/01 02:18:34;;;;;;;8.15;3.15;;;;;;;28.57;42.38;101319.13;5115316;28;20027;-48
2022/09/01 02:21:08;;;;;;;8.50;3.00;;;;;;;28.54;42.27;101320.88;5097266;28;20551;-47
2022/09/01 02:23:37;;;;;;;7.47;3.05;;;;;;;28.53;42.29;101313.84;5115658;28;20042;-51
2022/09/01 02:26:07;;;;;;;6.05;2.58;;;;;;;28.48;42.47;101313.81;5115285;28;20084;-47
2022/09/01 02:28:41;;;;;;;5.50;2.75;;;;;;;28.46;42.53;101310.34;5114667;28;20381;-47
2022/09/01 02:31:10;;;;;;;5.65;2.97;;;;;;;28.41;42.66;101298.91;5096802;28;20031;-50
2022/09/01 02:33:40;;;;;;;10.23;3.38;;;;;;;28.45;42.73;101296.25;5114930;28;20035;-47
2022/09/01 02:36:12;;;;;;;8.48;3.88;;;;;;;28.43;42.60;101299.78;5114525;28;20068;-51
2022/09/01 02:38:44;;;;;;;9.18;3.20;;;;;;;28.31;42.94;101293.59;5114604;28;20492;-48
2022/09/01 02:41:14;;;;;;;7.50;3.20;;;;;;;28.35;42.98;101303.28;5097799;28;20028;-49
2022/09/01 02:43:44;;;;;;;6.13;2.80;;;;;;;28.45;42.69;101309.44;5096856;28;20362;-52
2022/09/01 02:46:14;;;;;;;7.78;3.30;;;;;;;28.44;42.80;101306.81;5115394;28;20024;-51
2022/09/01 02:48:44;;;;;;;7.35;3.80;;;;;;;28.38;42.90;101309.44;5114759;28;20464;-49
2022/09/01 02:51:16;;;;;;;13.43;3.40;;;;;;;28.41;43.02;101312.09;5096888;28;20111;-48
2022/09/01 02:53:51;;;;;;;7.53;2.95;;;;;;;28.41;42.71;101301.53;5096444;28;20024;-49
2022/09/01 02:56:21;;;;;;;8.38;2.78;;;;;;;28.40;42.63;101297.13;5114657;28;20476;-47
2022/09/01 02:58:50;;;;;;;9.27;3.58;;;;;;;28.35;42.90;101305.91;5079534;28;20054;-47
2022/09/01 03:01:24;;;;;;;7.00;3.03;;;;;;;28.37;42.83;101302.41;5114545;28;20031;-50
2022/09/01 03:03:55;;;;;;;6.50;3.20;;;;;;;28.37;42.86;101303.31;5114429;28;20036;-51
2022/09/01 03:06:24;;;;;;;6.70;3.17;;;;;;;28.38;42.97;101309.44;5114387;28;20030;-49
2022/09/01 03:08:58;;;;;;;7.18;2.83;;;;;;;28.37;42.65;101308.56;5114138;28;20030;-48
2022/09/01 03:11:28;;;;;;;6.07;3.30;;;;;;;28.46;42.59;101300.66;5114431;28;20027;-50
2022/09/01 03:13:56;;;;;;;6.88;3.05;;;;;;;28.39;42.95;101298.00;5114098;28;20088;-48
2022/09/01 03:16:25;;;;;;;5.60;2.63;;;;;;;28.40;42.71;101297.13;5114301;28;20102;-47
2022/09/01 03:18:53;;;;;;;8.85;3.05;;;;;;;28.38;42.82;101297.13;5096384;28;20397;-48
2022/09/01 03:21:23;;;;;;;9.43;3.17;;;;;;;28.40;42.55;101297.13;5114096;28;20027;-48
2022/09/01 03:23:52;;;;;;;5.22;2.83;;;;;;;28.39;42.61;101292.72;5114323;28;20406;-47
2022/09/01 03:26:22;;;;;;;7.05;3.47;;;;;;;28.42;42.70;101290.09;5114544;28;20479;-48
2022/09/01 03:28:51;;;;;;;8.20;3.35;;;;;;;28.40;42.91;101292.72;5113499;28;20028;-48
2022/09/01 03:31:19;;;;;;;7.28;2.65;;;;;;;28.41;42.43;101289.19;5113952;28;20396;-48
2022/09/01 03:33:48;;;;;;;10.32;2.92;;;;;;;28.38;42.65;101273.38;5114281;28;20020;-47
2022/09/01 03:36:20;;;;;;;6.10;2.47;;;;;;;28.38;42.29;101285.69;5113907;28;20019;-47
2022/09/01 03:38:50;;;;;;;6.68;2.90;;;;;;;28.41;42.60;101293.63;5113819;28;20039;-47
2022/09/01 03:41:21;;;;;;;7.20;2.60;;;;;;;28.37;42.65;101289.22;5114303;28;20119;-50
2022/09/01 03:43:53;;;;;;;6.95;3.10;;;;;;;28.42;42.58;101290.09;5095642;28;20042;-49
2022/09/01 03:46:23;;;;;;;8.23;2.88;;;;;;;28.43;42.54;101283.94;5096509;28;20036;-50
2022/09/01 03:48:57;;;;;;;8.82;2.97;;;;;;;28.41;42.48;101281.28;5113588;28;20027;-50
2022/09/01 03:51:26;;;;;;;4.72;2.25;;;;;;;28.41;42.68;101283.94;5114137;28;20102;-50
2022/09/01 03:53:56;;;;;;;6.93;2.88;;;;;;;28.49;42.46;101283.91;5113475;28;20039;-50
2022/09/01 03:56:26;;;;;;;6.57;2.50;;;;;;;28.44;42.27;101278.66;5112512;28;20380;-48
2022/09/01 03:58:56;;;;;;;7.30;3.15;;;;;;;28.41;42.63;101275.16;5113569;28;20039;-49
2022/09/01 04:01:27;;;;;;;7.38;2.60;;;;;;;28.43;42.42;101278.66;5095527;28;20396;-52
2022/09/01 04:03:55;;;;;;;6.80;2.78;;;;;;;28.40;42.49;101278.66;5113578;28;20101;-48
2022/09/01 04:06:24;;;;;;;9.20;2.80;;;;;;;28.42;42.54;101274.25;5113798;28;20437;-52
2022/09/01 04:09:01;;;;;;;6.00;2.70;;;;;;;28.41;42.50;101283.06;5095257;28;20020;-50
2022/09/01 04:11:31;;;;;;;7.65;3.08;;;;;;;28.42;42.27;101263.72;5113673;28;20350;-48
2022/09/01 04:14:00;;;;;;;7.25;2.95;;;;;;;28.45;42.30;101269.84;5113358;28;20492;-51
2022/09/01 04:19:24;;;;;;;6.30;2.63;;;;;;;28.38;42.49;101269.88;5106291;28;20063;-50
2022/09/01 04:21:55;;;;;;;7.53;2.55;;;;;;;28.38;42.38;101272.50;5113458;28;20397;-48
2022/09/01 04:24:26;;;;;;;5.68;2.53;;;;;;;28.39;42.38;101269.84;5113730;28;20106;-49
2022/09/01 04:26:57;;;;;;;5.32;2.63;;;;;;;28.39;42.56;101261.06;5113424;28;20522;-48
2022/09/01 04:29:26;;;;;;;5.50;2.58;;;;;;;28.33;42.56;101260.19;5113211;28;20030;-50
2022/09/01 04:31:56;;;;;;;7.47;2.72;;;;;;;28.38;42.50;101262.81;5113084;28;20084;-54
2022/09/01 04:34:25;;;;;;;8.52;3.30;;;;;;;28.38;42.46;101257.53;5113091;28;20027;-50
2022/09/01 04:36:54;;;;;;;5.47;2.30;;;;;;;28.38;42.15;101254.03;5113449;28;20622;-51
2022/09/01 04:39:24;;;;;;;6.78;2.90;;;;;;;28.38;42.34;101251.41;5095441;28;20492;-50
2022/09/01 04:41:52;;;;;;;9.57;2.67;;;;;;;28.35;42.41;101258.44;5113076;28;20110;-52
2022/09/01 04:44:21;;;;;;;3.78;2.28;;;;;;;28.34;42.48;101254.03;5113107;28;20106;-48
2022/09/01 04:46:50;;;;;;;4.75;2.50;;;;;;;28.35;42.43;101249.66;5112971;28;20550;-48
2022/09/01 04:49:20;;;;;;;6.85;2.80;;;;;;;28.35;42.25;101250.50;5113165;28;20194;-47
2022/09/01 04:51:51;;;;;;;5.13;2.30;;;;;;;28.34;42.24;101245.25;5094842;28;20477;-50
2022/09/01 04:54:20;;;;;;;4.80;2.22;;;;;;;28.33;42.21;101235.56;5113418;28;20499;-52
2022/09/01 04:56:50;;;;;;;5.30;2.70;;;;;;;28.35;42.32;101241.72;5113038;28;20020;-54
2022/09/01 04:59:19;;;;;;;5.85;2.60;;;;;;;28.34;42.15;101242.63;5112944;28;20046;-50
2022/09/01 05:01:49;;;;;;;5.45;2.60;;;;;;;28.32;42.13;101244.38;5113091;28;20102;-51
2022/09/01 05:04:21;;;;;;;4.63;2.50;;;;;;;28.32;42.10;101242.59;5094520;28;20503;-51
2022/09/01 05:06:55;;;;;;;5.70;2.60;;;;;;;28.28;42.23;101243.50;5095176;28;20023;-47
2022/09/01 05:09:24;;;;;;;8.32;2.28;;;;;;;28.29;42.38;101239.09;5115488;28;20476;-48
2022/09/01 05:11:52;;;;;;;4.63;2.58;;;;;;;28.29;42.42;101242.63;5097908;28;20031;-49
2022/09/01 05:14:21;;;;;;;5.38;2.40;;;;;;;28.28;42.38;101243.50;5116574;28;20068;-48
2022/09/01 05:16:52;;;;;;;4.50;2.42;;;;;;;28.26;42.17;101244.38;5115927;28;20035;-47
2022/09/01 05:19:24;;;;;;;5.40;2.60;;;;;;;28.26;42.35;101242.63;5116418;28;20019;-48
2022/09/01 05:21:56;;;;;;;5.15;2.38;;;;;;;28.29;42.16;101241.72;5115897;28;20495;-49
2022/09/01 05:24:29;;;;;;;5.03;2.50;;;;;;;28.29;42.37;101239.09;5097889;28;20031;-52
2022/09/01 05:26:58;;;;;;;4.35;2.15;;;;;;;28.31;42.00;101234.69;5115897;28;20023;-47
2022/09/01 05:29:27;;;;;;;5.88;2.13;;;;;;;28.29;41.99;101237.34;5116509;28;20056;-47
2022/09/01 05:31:56;;;;;;;10.93;2.85;;;;;;;28.18;42.16;101229.44;5097827;28;20479;-48
2022/09/01 05:34:26;;;;;;;6.40;2.80;;;;;;;28.25;42.04;101237.31;5115987;28;20469;-47
2022/09/01 05:36:56;;;;;;;5.05;2.47;;;;;;;28.23;42.17;101233.81;5098081;28;20122;-48
2022/09/01 05:39:25;;;;;;;7.68;2.60;;;;;;;28.25;42.00;101239.97;5098364;28;20040;-49
2022/09/01 05:41:54;;;;;;;5.80;2.15;;;;;;;28.25;42.13;101237.31;5116253;28;20499;-48
2022/09/01 05:44:23;;;;;;;8.05;2.85;;;;;;;28.23;42.08;101236.44;5116207;28;20035;-47
2022/09/01 05:46:52;;;;;;;4.85;2.60;;;;;;;28.26;42.08;101234.72;5098256;28;20027;-50
2022/09/01 05:49:20;;;;;;;4.47;2.20;;;;;;;28.24;42.14;101240.84;5116073;28;20023;-49
2022/09/01 05:51:51;;;;;;;6.95;2.35;;;;;;;28.22;42.11;101238.22;5116226;28;20369;-48
2022/09/01 05:54:23;;;;;;;5.32;2.30;;;;;;;28.20;42.12;101240.88;5115918;28;20392;-51
2022/09/01 05:56:52;;;;;;;9.05;2.65;;;;;;;28.17;42.34;101238.22;5115549;28;20171;-53
2022/09/01 05:59:22;;;;;;;5.30;2.40;;;;;;;28.19;41.92;101239.13;5097142;28;20081;-50
2022/09/01 06:01:51;;;;;;;7.57;2.33;;;;;;;28.17;42.20;101240.88;5098134;28;20423;-51
2022/09/01 06:04:19;;;;;;;6.72;2.70;;;;;;;28.24;42.05;101238.22;5115686;28;20172;-51
2022/09/01 06:06:48;;;;;;;7.93;3.08;;;;;;;28.18;42.33;101241.72;5115602;28;20028;-52
2022/09/01 06:09:18;;;;;;;8.55;2.40;;;;;;;28.16;42.39;101251.41;5115507;28;20020;-51
2022/09/01 06:11:46;;;;;;;10.05;2.55;;;;;;;28.15;42.19;101254.91;5097042;28;20046;-52
2022/09/01 06:14:16;;;;;;;10.00;2.40;;;;;;;28.10;42.32;101243.50;5097141;28;20019;-50
2022/09/01 06:16:46;;;;;;;5.82;2.13;;;;;;;28.13;42.05;101247.00;5115312;28;20035;-48
2022/09/01 06:19:14;;;;;;;4.03;2.38;;;;;;;28.16;42.36;101249.66;5114835;28;20450;-49
2022/09/01 06:21:43;;;;;;;6.60;2.30;;;;;;;28.11;42.24;101255.81;5115281;28;20023;-49
2022/09/01 06:24:12;;;;;;;5.18;2.58;;;;;;;28.10;42.41;101244.38;5097099;28;20058;-48
2022/09/01 06:26:41;;;;;;;8.15;2.70;;;;;;;28.16;42.41;101241.75;5115460;28;20027;-50
2022/09/01 06:29:14;;;;;;;6.20;2.78;;;;;;;28.14;42.42;101250.50;5097323;28;20023;-53
2022/09/01 06:31:44;;;;;;;6.80;2.88;;;;;;;28.10;42.50;101246.16;5115166;28;20031;-49
2022/09/01 06:34:16;;;;;;;5.53;2.50;;;;;;;28.09;42.51;101255.75;5115218;28;20059;-50
2022/09/01 06:36:47;;;;;;;7.65;3.00;;;;;;;28.10;42.38;101257.56;5115002;28;20088;-52
2022/09/01 06:39:19;;;;;;;6.93;2.75;;;;;;;28.14;42.12;101254.06;5114876;28;20058;-48
2022/09/01 06:41:51;;;;;;;5.10;2.50;;;;;;;28.12;42.41;101244.41;5096896;28;20032;-52
2022/09/01 06:44:21;;;;;;;5.43;2.60;;;;;;;28.12;42.61;101253.16;5096675;28;20099;-52
2022/09/01 06:46:50;;;;;;;7.25;3.05;;;;;;;28.11;42.51;101247.91;5097455;28;20019;-49
2022/09/01 06:49:20;;;;;;;7.13;3.10;;;;;;;28.14;42.69;101245.25;5114607;28;20487;-51
2022/09/01 06:51:51;;;;;;;6.25;2.53;;;;;;;28.13;42.35;101247.00;5114656;28;20086;-47
2022/09/01 06:54:20;;;;;;;7.18;3.22;;;;;;;28.15;42.65;101250.53;5080205;28;20019;-50
2022/09/01 06:56:49;;;;;;;5.13;2.92;;;;;;;28.20;42.67;101259.34;5114747;28;20076;-52
2022/09/01 06:59:17;;;;;;;5.30;2.40;;;;;;;28.14;42.70;101255.78;5114500;28;20092;-51
2022/09/01 07:01:47;;;;;;;6.00;2.35;;;;;;;28.10;42.70;101259.34;5096702;28;20061;-51
2022/09/01 07:04:18;;;;;;;8.80;2.72;;;;;;;28.09;42.87;101260.19;5114675;28;20098;-50
2022/09/01 07:06:51;;;;;;;7.75;3.05;;;;;;;28.04;42.88;101265.47;5114446;28;20461;-52
2022/09/01 07:09:20;;;;;;;8.23;3.03;;;;;;;28.04;42.74;101260.19;5114438;28;20115;-49
2022/09/01 07:11:49;;;;;;;12.13;3.00;;;;;;;28.07;43.13;101264.56;5114532;28;20384;-51
2022/09/01 07:14:18;;;;;;;11.02;3.58;;;;;;;28.05;43.19;101256.63;5114021;28;20135;-47
2022/09/01 07:16:45;;;;;;;8.07;2.70;;;;;;;28.12;42.92;101249.66;5113972;28;20065;-48
2022/09/01 07:19:14;;;;;;;6.72;3.05;;;;;;;28.16;42.89;101252.28;5114186;28;20508;-48
2022/09/01 07:21:44;;;;;;;8.82;3.17;;;;;;;28.16;42.83;101252.28;5114401;28;20507;-48
2022/09/01 07:24:16;;;;;;;5.97;2.55;;;;;;;28.05;42.80;101233.78;5095645;28;20031;-47
2022/09/01 07:26:48;;;;;;;8.55;2.85;;;;;;;28.11;42.95;101253.19;5114003;28;20511;-51
2022/09/01 07:29:18;;;;;;;6.25;2.83;;;;;;;28.10;43.29;101254.91;5113859;28;20043;-47
2022/09/01 07:31:48;;;;;;;6.95;3.08;;;;;;;28.14;42.85;101256.69;5113658;28;20027;-48
2022/09/01 07:34:16;;;;;;;7.28;3.00;;;;;;;28.16;42.76;101251.41;5114256;28;20028;-48
2022/09/01 07:36:45;;;;;;;5.10;2.75;;;;;;;28.18;42.94;101257.56;5113984;28;20059;-47
2022/09/01 07:39:14;;;;;;;7.93;2.88;;;;;;;28.15;43.05;101257.56;5113935;28;20106;-47
2022/09/01 07:41:43;;;;;;;14.15;3.33;;;;;;;28.20;42.86;101261.06;5095786;28;20383;-47
2022/09/01 07:44:12;;;;;;;5.30;2.55;;;;;;;28.25;43.00;101255.78;5113970;28;20024;-46
2022/09/01 07:46:41;;;;;;;7.45;2.83;;;;;;;28.20;43.45;101255.81;5096285;28;20024;-48
2022/09/01 07:49:10;;;;;;;5.40;2.55;;;;;;;28.19;43.20;101247.03;5113835;28;20485;-49
2022/09/01 07:51:39;;;;;;;9.98;2.53;;;;;;;28.26;43.18;101247.91;5113797;28;20031;-48
2022/09/01 07:54:09;;;;;;;6.82;3.03;;;;;;;28.26;42.97;101258.44;5113901;28;20036;-48
2022/09/01 07:56:39;;;;;;;8.98;2.90;;;;;;;28.23;43.39;101253.16;5114034;28;20047;-48
2022/09/01 07:59:08;;;;;;;5.70;2.35;;;;;;;28.28;42.91;101264.59;5113202;28;20116;-48
2022/09/01 08:01:36;;;;;;;5.93;2.67;;;;;;;28.29;43.44;101260.19;5113790;28;20017;-47
2022/09/01 08:04:06;;;;;;;7.95;3.30;;;;;;;28.33;43.15;101264.59;5113752;28;20388;-48
2022/09/01 08:06:35;;;;;;;7.97;2.97;;;;;;;28.33;43.27;101260.19;5113604;28;20122;-48
2022/09/01 08:09:06;;;;;;;7.65;3.55;;;;;;;28.32;42.75;101252.28;5113208;28;20028;-50
2022/09/01 08:11:34;;;;;;;8.57;3.22;;;;;;;28.37;42.88;101262.81;5112559;28;20043;-51
2022/09/01 08:14:03;;;;;;;8.68;3.60;;;;;;;28.34;43.38;101261.94;5114008;28;20028;-52
2022/09/01 08:16:32;;;;;;;6.43;3.13;;;;;;;28.42;42.88;101267.22;5113587;28;20469;-51
2022/09/01 08:19:01;;;;;;;6.65;2.90;;;;;;;28.39;42.87;101272.50;5113452;28;20032;-47
2022/09/01 08:21:29;;;;;;;9.15;2.72;;;;;;;28.19;42.99;101238.22;5113300;28;20069;-51
2022/09/01 08:23:58;;;;;;;8.20;2.95;;;;;;;28.39;42.77;101266.34;5113021;28;20058;-52
2022/09/01 08:26:26;;;;;;;14.45;4.22;;;;;;;28.37;43.00;101273.38;5107214;28;20103;-49
2022/09/01 08:28:54;;;;;;;5.32;2.80;;;;;;;28.36;42.77;101267.25;5095742;28;20066;-51
2022/09/01 08:31:23;;;;;;;5.68;2.90;;;;;;;28.38;42.86;101264.59;5099482;28;20077;-51
2022/09/01 08:33:51;;;;;;;4.97;2.83;;;;;;;28.32;43.23;101262.84;5102360;28;20039;-51
2022/09/01 08:36:18;;;;;;;7.63;3.03;;;;;;;28.38;43.06;101261.94;5097330;28;20032;-52
2022/09/01 08:38:45;;;;;;;8.95;3.63;;;;;;;28.33;42.84;101260.19;5101877;28;20043;-52
2022/09/01 08:41:36;;;;;;;7.20;2.97;;;;;;;28.27;43.35;101261.94;5100914;28;20031;-47
2022/09/01 08:44:31;;;;;;;7.07;2.97;;;;;;;28.37;43.05;101263.72;5103713;28;20392;-48
2022/09/01 08:47:05;;;;;;;;;;;;;;;28.48;42.85;101256.66;5097662;28;20124;-47
2022/09/01 08:49:35;;;;;;;6.18;3.05;;;;;;;28.48;42.75;101256.66;5071724;28;20388;-47
2022/09/01 08:52:28;;;;;;;8.70;3.50;;;;;;;28.49;42.61;101254.88;5086206;28;20065;-51
2022/09/01 08:55:15;;;;;;;6.43;3.13;;;;;;;28.52;42.51;101249.59;5096249;28;20390;-49
2022/09/01 08:57:45;;;;;;;10.38;3.38;;;;;;;28.58;42.25;101262.81;5094930;28;20131;-52
2022/09/01 09:00:19;;;;;;;6.60;2.63;;;;;;;28.62;42.21;101248.72;5086687;28;20047;-52
2022/09/01 09:03:14;;;;;;;8.00;2.97;;;;;;;28.52;42.20;101246.97;5105502;28;20070;-50
2022/09/01 09:06:13;;;;;;;7.65;3.25;;;;;;;28.41;42.48;101241.72;5096164;28;20596;-51
2022/09/01 09:08:55;;;;;;;4.65;2.70;;;;;;;28.43;42.67;101245.22;5100387;28;20036;-52
2022/09/01 09:12:01;;;;;;;7.57;3.10;;;;;;;28.49;42.34;101236.41;5085528;28;20074;-51
2022/09/01 09:14:58;;;;;;;5.05;3.13;;;;;;;28.49;42.15;101237.31;5103198;28;20063;-50
2022/09/01 09:17:33;;;;;;;8.77;3.10;;;;;;;28.50;42.14;101247.00;5092502;28;20114;-51
2022/09/01 09:20:01;;;;;;;6.18;2.72;;;;;;;28.57;42.13;101237.28;5106888;28;20027;-52
2022/09/01 09:22:30;;;;;;;10.25;2.78;;;;;;;28.57;42.26;101242.56;5090446;28;20384;-52
2022/09/01 09:25:07;;;;;;;9.30;3.08;;;;;;;28.46;42.18;101223.25;5095127;28;20461;-53
2022/09/01 09:27:39;;;;;;;8.18;2.83;;;;;;;28.59;42.05;101240.81;5091205;28;20028;-52
2022/09/01 09:30:10;;;;;;;5.93;2.92;;;;;;;28.57;42.19;101249.59;5103387;28;20024;-51
2022/09/01 09:32:59;;;;;;;7.20;2.80;;;;;;;28.48;42.16;101248.75;5105451;28;20019;-49
2022/09/01 09:35:41;;;;;;;2.78;2.33;;;;;;;28.53;42.08;101250.50;5105439;28;20039;-52
2022/09/01 09:38:22;;;;;;;8.80;2.92;;;;;;;28.55;42.21;101249.59;5084256;28;20047;-52
2022/09/01 09:41:15;;;;;;;4.68;2.40;;;;;;;28.57;42.11;101242.56;5104361;28;20054;-51
2022/09/01 09:43:48;;;;;;;6.45;2.85;;;;;;;28.59;42.07;101250.47;5103231;28;20024;-52
2022/09/01 09:46:35;;;;;;;5.93;2.38;;;;;;;28.60;41.90;101246.97;5104733;28;20054;-49
2022/09/01 09:49:25;;;;;;;8.80;3.13;;;;;;;28.59;41.99;101254.00;5084756;28;20058;-52
2022/09/01 09:51:53;;;;;;;9.05;3.03;;;;;;;28.60;41.91;101252.22;5084404;28;20031;-52
2022/09/01 09:54:25;;;;;;;5.75;2.63;;;;;;;28.65;41.74;101242.56;5102177;28;20023;-52
2022/09/01 09:57:13;;;;;;;6.00;2.92;;;;;;;28.54;42.16;101245.22;5085518;28;20035;-52
2022/09/01 09:59:52;;;;;;;8.95;2.60;;;;;;;28.56;42.09;101239.91;5087961;28;20142;-49
2022/09/01 10:02:45;;;;;;;13.73;3.15;;;;;;;28.54;42.23;101237.28;5104780;28;20052;-52
2022/09/01 10:05:34;;;;;;;7.40;2.63;;;;;;;28.55;42.25;101239.06;5101956;28;20114;-52
2022/09/01 10:08:04;;;;;;;8.98;2.40;;;;;;;28.58;42.06;101252.25;5093467;28;20503;-51
2022/09/01 10:10:51;;;;;;;12.73;3.42;;;;;;;28.58;41.86;101248.72;5085061;28;20393;-51
2022/09/01 10:13:23;;;;;;;9.35;3.15;;;;;;;28.52;42.38;101249.59;5102077;28;20105;-50
2022/09/01 10:15:54;;;;;;;6.78;2.83;;;;;;;28.49;42.08;101249.59;5104759;28;20027;-50
2022/09/01 10:18:24;;;;;;;8.38;2.85;;;;;;;28.46;42.33;101245.22;5104560;28;20042;-51
2022/09/01 10:21:16;;;;;;;9.05;3.40;;;;;;;28.41;42.71;101249.63;5082489;28;20478;-51
2022/09/01 10:23:43;;;;;;;7.93;3.53;;;;;;;28.49;42.49;101253.16;5097316;28;20147;-51
2022/09/01 10:26:17;;;;;;;5.75;2.78;;;;;;;28.61;41.99;101246.97;5075752;28;20051;-52
2022/09/01 10:28:58;;;;;;;6.72;3.47;;;;;;;28.58;42.56;101249.59;5100833;28;20077;-52
2022/09/01 10:31:27;;;;;;;7.28;3.50;;;;;;;28.63;42.23;101241.69;5095239;28;20073;-52
2022/09/01 10:33:54;;;;;;;7.07;2.83;;;;;;;28.62;42.56;101248.72;5096007;28;20493;-50
2022/09/01 10:36:22;;;;;;;7.18;3.13;;;;;;;28.54;42.54;101247.84;5106054;28;20465;-67
2022/09/01 10:38:50;;;;;;;6.57;3.42;;;;;;;28.57;42.51;101247.84;5097977;28;20385;-48
2022/09/01 10:41:39;;;;;;;6.60;3.15;;;;;;;28.52;42.63;101249.59;5094811;28;20050;-48
2022/09/01 10:44:10;;;;;;;8.70;3.17;;;;;;;28.62;42.30;101251.38;5082677;28;20043;-52
2022/09/01 10:46:39;;;;;;;8.13;3.15;;;;;;;28.64;42.29;101243.44;5097623;28;20042;-48
2022/09/01 10:49:27;;;;;;;4.97;2.60;;;;;;;28.57;42.29;101241.69;5095799;28;20032;-53
2022/09/01 10:51:56;;;;;;;9.68;2.55;;;;;;;28.57;42.19;101253.13;5097850;28;20031;-53
2022/09/01 10:54:43;;;;;;;6.53;3.00;;;;;;;28.64;42.15;101246.06;5094131;28;20135;-53
2022/09/01 10:57:33;;;;;;;7.05;2.45;;;;;;;28.75;42.02;101246.94;5096843;28;20059;-55
2022/09/01 11:00:24;;;;;;;10.15;3.25;;;;;;;28.69;41.82;101238.13;5096767;28;20138;-54
2022/09/01 11:03:11;;;;;;;10.57;3.13;;;;;;;28.83;41.72;101256.63;5105914;28;20121;-55
2022/09/01 11:05:58;;;;;;;7.38;2.85;;;;;;;28.72;41.96;101254.84;5096141;28;20391;-52
2022/09/01 11:08:27;;;;;;;6.07;2.17;;;;;;;28.65;42.25;101263.66;5084921;28;20035;-56
2022/09/01 11:11:25;;;;;;;8.82;3.05;;;;;;;28.64;42.47;101260.13;5082900;28;20024;-52
2022/09/01 11:13:55;;;;;;;9.27;3.03;;;;;;;28.57;42.63;101250.50;5093108;28;20122;-52
2022/09/01 11:16:30;;;;;;;5.75;2.88;;;;;;;28.57;42.62;101258.41;5097301;28;20028;-55
2022/09/01 11:19:14;;;;;;;;;;;;;;;28.65;42.46;101250.47;5103990;28;20035;-55
2022/09/01 11:21:42;;;;;;;9.27;3.30;;;;;;;28.73;42.17;101245.16;5091249;28;19957;-54
2022/09/01 11:24:37;;;;;;;9.13;2.80;;;;;;;28.68;42.27;101239.91;5065165;28;20039;-53
2022/09/01 11:27:07;;;;;;;9.60;3.05;;;;;;;28.73;42.89;101246.06;5094188;28;20481;-49
2022/09/01 11:29:56;;;;;;;12.05;3.10;;;;;;;28.72;42.43;101241.63;5100406;28;20066;-51
2022/09/01 11:32:28;;;;;;;6.93;2.83;;;;;;;28.77;42.55;101239.91;5074651;28;20036;-52
2022/09/01 11:34:56;;;;;;;9.25;2.80;;;;;;;28.72;42.90;101238.13;5091581;28;20040;-51
2022/09/01 11:37:26;;;;;;;8.30;3.15;;;;;;;28.83;42.52;101248.69;5099697;28;20421;-53
2022/09/01 11:40:01;;;;;;;9.27;3.30;;;;;;;28.82;42.49;101247.81;5110494;28;20028;-52
2022/09/01 11:42:39;;;;;;;6.78;2.78;;;;;;;28.79;43.09;101239.91;5093481;28;20028;-53
2022/09/01 11:45:25;;;;;;;5.93;2.75;;;;;;;28.88;43.03;101247.78;5093026;28;20036;-52
2022/09/01 11:47:57;;;;;;;7.10;2.38;;;;;;;28.87;42.97;101245.19;5075513;28;20031;-52
2022/09/01 11:50:26;;;;;;;10.30;3.05;;;;;;;28.86;43.25;101248.69;5093207;28;20043;-53
2022/09/01 11:52:58;;;;;;;6.78;3.05;;;;;;;28.80;43.15;101247.81;5093096;28;20118;-52
2022/09/01 11:55:30;;;;;;;5.45;2.40;;;;;;;28.81;43.30;101253.97;5075124;28;20573;-53